This is the latest recevied weather packets stored in our database for station/object 5B4APJ-13. If no packets are shown the sender has not sent any weather packets the latest 10 day(s).
| Time | Temp. | Humidity | Pressure | Rain* | Wind** | Luminosity | Snow |
|---|---|---|---|---|---|---|---|
| 1777980723 | 15.56° C | 53% | 1013 hPa | 0 mm | 0.89 m/s, 117° | 242 W/m² | - |
| 1777980423 | 15.56° C | 54% | 1013.2 hPa | 0 mm | 1.79 m/s, 96° | 286 W/m² | - |
| 1777980123 | 15.56° C | 54% | 1013.2 hPa | 0 mm | 0.45 m/s, 246° | 141 W/m² | - |
| 1777979823 | 15.56° C | 55% | 1013.3 hPa | 0 mm | 1.34 m/s, 111° | 86 W/m² | - |
| 1777979522 | 15° C | 57% | 1013.2 hPa | 0 mm | 0.45 m/s, 123° | 124 W/m² | - |
| 1777979223 | 15° C | 59% | 1013 hPa | 0 mm | 1.79 m/s, 101° | 184 W/m² | - |
| 1777978922 | 15.56° C | 57% | 1013.1 hPa | 0 mm | 2.68 m/s, 91° | 169 W/m² | - |
| 1777978622 | 15.56° C | 59% | 1013.4 hPa | 0 mm | 1.34 m/s, 91° | 187 W/m² | - |
| 1777978322 | 15.56° C | 58% | 1013.1 hPa | 0 mm | 1.79 m/s, 91° | 307 W/m² | - |
| 1777978022 | 15.56° C | 57% | 1013.1 hPa | 0 mm | 2.24 m/s, 177° | 109 W/m² | - |
| 1777977721 | 15.56° C | 58% | 1013.1 hPa | 0 mm | 0.89 m/s, 151° | 112 W/m² | - |
| 1777977422 | 15.56° C | 58% | 1012.7 hPa | 0 mm | 0.89 m/s, 244° | 145 W/m² | - |
| 1777977122 | 15.56° C | 58% | 1012.8 hPa | 0 mm | 2.24 m/s, 129° | 193 W/m² | - |
| 1777976822 | 15.56° C | 59% | 1012.7 hPa | 0 mm | 0.89 m/s, 162° | 230 W/m² | - |
| 1777976522 | 15.56° C | 58% | 1012.8 hPa | 0 mm | 1.79 m/s, 97° | 363 W/m² | - |
| 1777976222 | 15.56° C | 60% | 1012.9 hPa | 0 mm | 0.45 m/s, 146° | 263 W/m² | - |
| 1777975922 | 15° C | 61% | 1012.8 hPa | 0 mm | 0.89 m/s, 114° | 391 W/m² | - |
| 1777975622 | 14.44° C | 62% | 1012.8 hPa | 0 mm | 0.45 m/s, 148° | 174 W/m² | - |
| 1777975321 | 14.44° C | 64% | 1012.8 hPa | 0 mm | 0.89 m/s, 220° | 123 W/m² | - |
| 1777975022 | 14.44° C | 64% | 1012.7 hPa | 0 mm | 1.34 m/s, 107° | 128 W/m² | - |
| 1777974722 | 14.44° C | 63% | 1012.9 hPa | 0 mm | 1.34 m/s, 98° | 124 W/m² | - |
| 1777974422 | 14.44° C | 64% | 1012.9 hPa | 0 mm | 0.45 m/s, 107° | 188 W/m² | - |
| 1777974122 | 14.44° C | 64% | 1012.9 hPa | 0 mm | 1.34 m/s, 65° | 170 W/m² | - |
| 1777973822 | 14.44° C | 64% | 1012.9 hPa | 0 mm | 0.45 m/s, 255° | 138 W/m² | - |
| 1777973522 | 14.44° C | 64% | 1012.7 hPa | 0 mm | 0.89 m/s, 160° | 80 W/m² | - |
* Rain latest hour (hover to see other rain measurements)
** Current wind speed in m/s (hover to see current wind gust speed)